createdAt,value
2018-01-03T00:00:06.210Z,956.62
2018-01-03T00:15:04.758Z,956.62
2018-01-03T00:30:05.497Z,956.17
2018-01-03T00:45:05.462Z,955.9
2018-01-03T01:00:05.034Z,955.45
2018-01-03T01:15:05.135Z,954.89
2018-01-03T01:30:06.464Z,953.95
2018-01-03T01:45:05.532Z,960.76
2018-01-03T02:00:06.357Z,960.55
2018-01-03T02:15:05.652Z,960.22
2018-01-03T02:30:11.734Z,952.88
2018-01-03T02:45:05.420Z,959.23
2018-01-03T03:00:08.281Z,958.74
2018-01-03T03:15:24.012Z,958.15
2018-01-03T03:30:08.532Z,957.53
2018-01-03T03:45:04.852Z,957.2
2018-01-03T04:00:04.662Z,956.23
2018-01-03T04:15:04.697Z,953.51
2018-01-03T04:30:04.895Z,952.32
2018-01-03T04:45:04.918Z,951.08
2018-01-03T05:00:04.678Z,949.84
2018-01-03T05:15:04.771Z,949.51
2018-01-03T05:30:05.475Z,948.68
2018-01-03T05:45:04.793Z,948.33
2018-01-03T06:00:04.676Z,947.95
2018-01-03T06:15:04.601Z,947.19
2018-01-03T06:30:04.728Z,947.17
2018-01-03T06:45:04.603Z,946.87
2018-01-03T07:00:05.204Z,946.65
2018-01-03T07:15:04.599Z,945.39
2018-01-03T07:30:04.793Z,944.93
2018-01-03T07:45:15.088Z,944.2
2018-01-03T08:00:04.582Z,942.61
2018-01-03T08:15:04.426Z,941.45
2018-01-03T08:30:05.543Z,947.43
2018-01-03T08:45:04.958Z,945.75
2018-01-03T09:00:04.316Z,944.06
2018-01-03T09:15:05.341Z,943.82
2018-01-03T09:30:20.638Z,944.96
2018-01-03T09:45:05.085Z,946.73
2018-01-03T10:00:05.509Z,947.76
2018-01-03T10:15:08.079Z,949.26
2018-01-03T10:30:04.668Z,943.2
2018-01-03T10:45:04.614Z,950.37
2018-01-03T11:00:05.025Z,951.24
2018-01-03T11:15:04.924Z,951.02
2018-01-03T11:30:06.180Z,953.56
2018-01-03T11:45:20.509Z,954.75
2018-01-03T12:00:08.096Z,954.96
2018-01-03T12:15:04.565Z,955.66
2018-01-03T12:30:05.211Z,955.12
2018-01-03T12:45:04.674Z,954.99
2018-01-03T13:00:08.230Z,954.96
2018-01-03T13:15:05.617Z,954.72
2018-01-03T13:30:06.247Z,954.75
2018-01-03T13:45:06.232Z,955.1
2018-01-03T14:00:05.610Z,955.42
2018-01-03T14:15:07.685Z,955.37
2018-01-03T14:30:07.985Z,955.34
2018-01-03T14:45:05.315Z,955.77
2018-01-03T15:00:06.287Z,956.07
2018-01-03T15:15:04.864Z,956.26
2018-01-03T15:30:05.546Z,956.37
2018-01-03T15:45:04.956Z,956.15
2018-01-03T16:00:06.164Z,956.42
2018-01-03T16:15:04.636Z,956.34
2018-01-03T16:30:05.357Z,956.39
2018-01-03T16:45:04.928Z,956.45
2018-01-03T17:00:04.430Z,955.96
2018-01-03T17:15:05.911Z,956.2
2018-01-03T17:30:05.628Z,956.31
2018-01-03T17:45:06.187Z,956.47
2018-01-03T18:00:11.504Z,957.34
2018-01-03T18:15:13.373Z,958.93
2018-01-03T18:30:05.117Z,959.47
2018-01-03T18:45:06.029Z,959.58
2018-01-03T19:00:05.067Z,959.31
2018-01-03T19:15:05.797Z,959.15
2018-01-03T19:30:07.757Z,958.88
2018-01-03T19:45:05.366Z,958.5
2018-01-03T20:00:04.856Z,958.26
2018-01-03T20:15:06.611Z,958.2
2018-01-03T20:30:06.119Z,957.77
2018-01-03T20:45:08.451Z,957.9
2018-01-03T21:00:05.790Z,957.85
2018-01-03T21:15:05.013Z,957.66
2018-01-03T21:30:04.686Z,958.34
2018-01-03T21:45:06.240Z,959.74
2018-01-03T22:00:05.105Z,958.9
2018-01-03T22:15:05.338Z,958.63
2018-01-03T22:30:04.597Z,957.88
2018-01-03T22:45:04.637Z,957.36
2018-01-03T23:00:08.418Z,957.47
2018-01-03T23:15:05.177Z,957.66
2018-01-03T23:30:05.133Z,958.04
2018-01-03T23:45:06.254Z,957.61
